Ocean Sapphire — VRKL8 — position and weather

sailwx.info

Track history (hours):
 
Tides and Currents Weather Stations Pressure Air Temp Water Temp Dewpoint Dewpoint Depression Visibility Wind Speed Wind Dir Waves Ship Positions

Ocean Sapphire

Last reported at 2017-Dec-11 02:21 UTC. Time now 2017-Dec-13 15:11 UTC.
Position N 25°10' E 122°32'.

Length 229 m; draft 15.1 m.

Type: Cargo ship. MMSI: 477065400.

Date/timePositionNaut miles runAvg speedWind from/ knotsBaromVisibWave heightAir tempDewpointWater temp
2017-Dec-11 02:21N 25°10' E 122°32'411.1
2017-Dec-11 02:00N 25°07' E 122°30'611.1
2017-Dec-11 01:30N 25°01' E 122°28'510.9
2017-Dec-11 01:00N 24°56' E 122°26'510.9
2017-Dec-11 00:30N 24°51' E 122°25'711.0
2017-Dec-10 23:52N 24°44' E 122°22'411.0
2017-Dec-10 23:30N 24°41' E 122°20'611.2
2017-Dec-10 23:00N 24°35' E 122°19'510.9
2017-Dec-10 22:30N 24°30' E 122°17'511.0
2017-Dec-10 22:00N 24°25' E 122°15'510.9
2017-Dec-10 21:31N 24°20' E 122°13'510.7
2017-Dec-10 21:00N 24°15' E 122°11'510.9
2017-Dec-10 20:30N 24°09' E 122°09'610.8
2017-Dec-10 19:59N 24°04' E 122°08'  
Track history (hours):
 
Tides and Currents Weather Stations Pressure Air Temp Water Temp Dewpoint Dewpoint Depression Visibility Wind Speed Wind Dir Waves Ship Positions

Ocean Sapphire

Last reported at 2017-Dec-11 02:21 UTC. Time now 2017-Dec-13 15:11 UTC.
Position N 25°10' E 122°32'.

Length 229 m; draft 15.1 m.

Type: Cargo ship. MMSI: 477065400.

Date/timePositionNaut miles runAvg speedWind from/ knotsBaromVisibWave heightAir tempDewpointWater temp
2017-Dec-11 02:21N 25°10' E 122°32'411.1
2017-Dec-11 02:00N 25°07' E 122°30'611.1
2017-Dec-11 01:30N 25°01' E 122°28'510.9
2017-Dec-11 01:00N 24°56' E 122°26'510.9
2017-Dec-11 00:30N 24°51' E 122°25'711.0
2017-Dec-10 23:52N 24°44' E 122°22'411.0
2017-Dec-10 23:30N 24°41' E 122°20'611.2
2017-Dec-10 23:00N 24°35' E 122°19'510.9
2017-Dec-10 22:30N 24°30' E 122°17'511.0
2017-Dec-10 22:00N 24°25' E 122°15'510.9
2017-Dec-10 21:31N 24°20' E 122°13'510.7
2017-Dec-10 21:00N 24°15' E 122°11'510.9
2017-Dec-10 20:30N 24°09' E 122°09'610.8
2017-Dec-10 19:59N 24°04' E 122°08'  

Dump ship's entire track history